createdAt,value
2022-08-28T00:00:30.585Z,21.13
2022-08-28T00:02:59.845Z,21.12
2022-08-28T00:05:31.935Z,21.10
2022-08-28T00:08:00.890Z,21.11
2022-08-28T00:10:30.305Z,21.08
2022-08-28T00:12:58.286Z,21.07
2022-08-28T00:15:28.980Z,21.07
2022-08-28T00:17:56.621Z,21.07
2022-08-28T00:20:29.763Z,21.08
2022-08-28T00:22:58.313Z,21.09
2022-08-28T00:25:28.826Z,21.07
2022-08-28T00:27:58.376Z,21.05
2022-08-28T00:30:28.344Z,21.04
2022-08-28T00:32:58.406Z,21.03
2022-08-28T00:35:27.648Z,21.01
2022-08-28T00:37:57.471Z,20.99
2022-08-28T00:40:28.600Z,20.96
2022-08-28T00:43:01.369Z,20.94
2022-08-28T00:45:29.886Z,20.94
2022-08-28T00:47:57.438Z,20.93
2022-08-28T00:50:51.367Z,20.91
2022-08-28T00:53:19.784Z,20.89
2022-08-28T00:55:47.935Z,20.86
2022-08-28T00:58:16.111Z,20.80
2022-08-28T01:00:44.178Z,20.77
2022-08-28T01:03:12.067Z,20.76
2022-08-28T01:05:43.589Z,20.72
2022-08-28T01:08:11.408Z,20.70
2022-08-28T01:10:41.569Z,20.67
2022-08-28T01:13:09.355Z,20.66
2022-08-28T01:15:39.363Z,20.61
2022-08-28T01:18:10.094Z,20.58
2022-08-28T01:20:44.739Z,20.52
2022-08-28T01:23:21.366Z,20.54
2022-08-28T01:25:50.283Z,20.52
2022-08-28T01:28:18.598Z,20.50
2022-08-28T01:30:48.542Z,20.48
2022-08-28T01:33:16.594Z,20.47
2022-08-28T01:35:48.464Z,20.42
2022-08-28T01:38:20.016Z,20.41
2022-08-28T01:40:54.226Z,20.39
2022-08-28T01:43:26.182Z,20.37
2022-08-28T01:46:00.076Z,20.36
2022-08-28T01:48:28.074Z,20.33
2022-08-28T01:50:56.265Z,20.33
2022-08-28T01:53:26.327Z,20.28
2022-08-28T01:56:04.745Z,20.25
2022-08-28T01:58:37.873Z,20.21
2022-08-28T02:01:09.631Z,20.21
2022-08-28T02:03:37.550Z,20.21
2022-08-28T02:06:05.662Z,20.19
2022-08-28T02:08:33.301Z,20.18
2022-08-28T02:11:02.202Z,20.17
2022-08-28T02:13:29.783Z,20.16
2022-08-28T02:15:57.996Z,20.13
2022-08-28T02:18:25.563Z,20.13
2022-08-28T02:20:53.128Z,20.11
2022-08-28T02:23:20.722Z,20.11
2022-08-28T02:25:49.866Z,20.11
2022-08-28T02:28:19.878Z,20.07
2022-08-28T02:30:47.495Z,20.08
2022-08-28T02:33:16.145Z,20.08
2022-08-28T02:35:44.356Z,20.08
2022-08-28T02:38:12.159Z,20.08
2022-08-28T02:40:41.232Z,20.08
2022-08-28T02:43:08.868Z,20.09
2022-08-28T02:45:37.757Z,20.07
2022-08-28T02:48:05.784Z,20.06
2022-08-28T02:50:43.792Z,20.06
2022-08-28T02:53:12.552Z,20.02
2022-08-28T02:55:40.472Z,20.02
2022-08-28T02:58:09.559Z,20.04
2022-08-28T03:00:38.511Z,20.03
2022-08-28T03:03:06.253Z,20.04
2022-08-28T03:05:35.197Z,20.06
2022-08-28T03:08:02.928Z,20.06
2022-08-28T03:10:30.457Z,20.07
2022-08-28T03:12:58.115Z,20.09
2022-08-28T03:15:25.643Z,20.09
2022-08-28T03:17:54.606Z,20.09
2022-08-28T03:20:22.326Z,20.09
2022-08-28T03:23:16.075Z,20.07
2022-08-28T03:25:43.714Z,20.06
2022-08-28T03:28:11.621Z,20.02
2022-08-28T03:30:39.703Z,19.96
2022-08-28T03:33:08.590Z,19.94
2022-08-28T03:35:37.636Z,19.93
2022-08-28T03:38:05.580Z,19.94
2022-08-28T03:40:33.412Z,19.93
2022-08-28T03:43:01.858Z,19.92
2022-08-28T03:45:29.476Z,19.87
2022-08-28T03:47:57.376Z,19.84
2022-08-28T03:50:26.729Z,19.79
2022-08-28T03:52:56.480Z,19.78
2022-08-28T03:55:26.873Z,19.80
2022-08-28T03:57:54.930Z,19.79
2022-08-28T04:00:22.756Z,19.79
2022-08-28T04:02:50.512Z,19.77
2022-08-28T04:05:18.592Z,19.76
2022-08-28T04:07:47.490Z,19.75
2022-08-28T04:10:15.942Z,19.74
2022-08-28T04:12:43.653Z,19.73
2022-08-28T04:15:12.709Z,19.71
2022-08-28T04:17:41.175Z,19.70
2022-08-28T04:20:10.915Z,19.72
2022-08-28T04:22:38.959Z,19.72
2022-08-28T04:25:09.180Z,19.70
2022-08-28T04:27:36.965Z,19.71
2022-08-28T04:30:54.581Z,19.70
2022-08-28T04:37:09.534Z,19.67
2022-08-28T04:40:11.428Z,19.64
2022-08-28T04:43:22.737Z,19.64
2022-08-28T04:46:16.042Z,19.64
2022-08-28T04:56:23.017Z,19.62
2022-08-28T04:59:29.582Z,19.63
2022-08-28T05:02:53.349Z,19.63
2022-08-28T05:09:25.300Z,19.64
2022-08-28T05:12:26.088Z,19.62
2022-08-28T05:19:12.414Z,19.64
2022-08-28T05:22:28.991Z,19.63
2022-08-28T05:25:01.489Z,19.64
2022-08-28T05:32:22.384Z,19.64
2022-08-28T05:39:00.066Z,19.71
2022-08-28T05:42:05.607Z,19.72
2022-08-28T05:45:03.283Z,19.72
2022-08-28T05:48:02.708Z,19.72
2022-08-28T05:51:09.992Z,19.70
2022-08-28T05:54:19.072Z,19.69
2022-08-28T05:57:39.918Z,19.69
2022-08-28T06:01:09.035Z,19.70
2022-08-28T06:04:27.535Z,19.68
2022-08-28T06:07:04.687Z,19.67
2022-08-28T06:10:42.234Z,19.67
2022-08-28T06:13:19.094Z,19.72
2022-08-28T06:16:59.754Z,19.72
2022-08-28T06:23:25.716Z,19.73
2022-08-28T06:26:46.359Z,19.77
2022-08-28T06:33:01.885Z,19.79
2022-08-28T06:36:00.174Z,19.77
2022-08-28T06:38:54.454Z,19.74
2022-08-28T06:41:57.318Z,19.69
2022-08-28T06:45:10.580Z,19.67
2022-08-28T06:51:11.243Z,19.86
2022-08-28T06:53:42.929Z,20.22
2022-08-28T06:56:13.729Z,20.53
2022-08-28T06:58:56.926Z,20.76
2022-08-28T07:01:29.381Z,20.96
2022-08-28T07:04:00.245Z,21.16
2022-08-28T07:06:31.333Z,21.41
2022-08-28T07:09:00.743Z,21.54
2022-08-28T07:11:31.680Z,21.70
2022-08-28T07:14:03.441Z,22.07
2022-08-28T07:16:34.040Z,22.57
2022-08-28T07:19:05.462Z,23.07
2022-08-28T07:21:38.653Z,23.55
2022-08-28T07:24:10.921Z,24.07
2022-08-28T07:26:41.928Z,24.41
2022-08-28T07:29:11.548Z,23.95
2022-08-28T07:31:42.209Z,23.59
2022-08-28T07:34:11.958Z,23.41
2022-08-28T07:36:41.385Z,23.36
2022-08-28T07:39:16.280Z,23.67
2022-08-28T07:41:45.216Z,24.25
2022-08-28T07:44:33.954Z,24.71
2022-08-28T07:47:06.173Z,25.21
2022-08-28T07:49:38.305Z,25.77
2022-08-28T07:52:08.019Z,25.87
2022-08-28T07:54:40.891Z,25.54
2022-08-28T07:57:11.715Z,25.05
2022-08-28T07:59:42.187Z,24.73
2022-08-28T08:02:11.924Z,24.62
2022-08-28T08:04:41.632Z,24.42
2022-08-28T08:07:13.137Z,24.19
2022-08-28T08:09:46.755Z,24.15
2022-08-28T08:12:16.241Z,24.05
2022-08-28T08:14:45.855Z,23.99
2022-08-28T08:17:14.764Z,23.95
2022-08-28T08:19:42.536Z,24.01
2022-08-28T08:22:12.563Z,24.37
2022-08-28T08:24:43.169Z,24.41
2022-08-28T08:27:14.175Z,24.43
2022-08-28T08:29:43.886Z,24.71
2022-08-28T08:32:13.834Z,24.67
2022-08-28T08:34:46.111Z,24.85
2022-08-28T08:37:14.603Z,25.08
2022-08-28T08:39:45.633Z,25.56
2022-08-28T08:42:24.440Z,26.53
2022-08-28T08:44:55.190Z,27.33
2022-08-28T08:47:30.172Z,28.17
2022-08-28T08:50:01.297Z,28.75
2022-08-28T08:52:36.018Z,29.20
2022-08-28T08:55:31.999Z,28.81
2022-08-28T08:58:06.028Z,29.31
2022-08-28T09:00:38.734Z,29.35
2022-08-28T09:03:10.839Z,29.82
2022-08-28T09:05:50.552Z,30.24
2022-08-28T09:12:58.702Z,30.20
2022-08-28T09:16:56.330Z,29.16
2022-08-28T09:20:12.656Z,28.29
2022-08-28T09:23:53.554Z,27.93
2022-08-28T09:27:02.071Z,27.57
2022-08-28T09:30:22.895Z,26.97
2022-08-28T09:39:56.442Z,25.54
2022-08-28T09:42:42.556Z,25.98
2022-08-28T09:45:18.465Z,26.13
2022-08-28T09:55:40.663Z,25.31
2022-08-28T09:59:14.823Z,25.28
2022-08-28T10:03:10.622Z,25.34
2022-08-28T10:09:00.808Z,25.14
2022-08-28T10:12:03.177Z,25.18
2022-08-28T10:15:14.449Z,25.38
2022-08-28T10:18:20.287Z,25.11
2022-08-28T10:21:44.984Z,24.74
2022-08-28T10:25:45.804Z,24.56
2022-08-28T10:31:55.897Z,24.11
2022-08-28T10:34:40.961Z,24.09
2022-08-28T10:37:19.990Z,24.11
2022-08-28T10:39:54.454Z,24.06
2022-08-28T10:42:35.813Z,23.98
2022-08-28T10:45:08.594Z,23.91
2022-08-28T10:47:40.679Z,23.69
2022-08-28T10:50:15.443Z,23.51
2022-08-28T10:52:48.976Z,23.45
2022-08-28T10:55:21.692Z,23.33
2022-08-28T10:57:57.521Z,23.25
2022-08-28T11:00:27.355Z,23.15
2022-08-28T11:02:59.166Z,23.10
2022-08-28T11:05:30.570Z,23.03
2022-08-28T11:08:01.773Z,23.05
2022-08-28T11:10:46.379Z,22.98
2022-08-28T11:13:45.811Z,22.82
2022-08-28T11:16:19.871Z,22.64
2022-08-28T11:21:37.855Z,22.66
2022-08-28T11:24:09.989Z,22.56
2022-08-28T11:26:47.633Z,22.48
2022-08-28T11:29:48.718Z,22.48
2022-08-28T11:32:46.813Z,22.36
2022-08-28T11:35:50.057Z,22.30
2022-08-28T11:38:55.353Z,22.25
2022-08-28T11:41:26.572Z,22.24
2022-08-28T11:44:26.881Z,22.36
2022-08-28T11:47:14.742Z,22.47
2022-08-28T11:49:46.002Z,22.57
2022-08-28T11:52:33.926Z,22.69
2022-08-28T11:55:14.468Z,22.69
2022-08-28T12:00:34.837Z,22.51
2022-08-28T12:03:14.708Z,22.37
2022-08-28T12:05:52.726Z,22.32
2022-08-28T12:08:58.695Z,22.39
2022-08-28T12:12:12.206Z,22.57
2022-08-28T12:15:23.449Z,22.67
2022-08-28T12:18:00.520Z,22.74
2022-08-28T12:20:40.206Z,22.74
2022-08-28T12:23:39.122Z,22.73
2022-08-28T12:26:13.963Z,22.71
2022-08-28T12:29:03.420Z,22.66
2022-08-28T12:32:15.280Z,22.69
2022-08-28T12:35:19.230Z,22.83
2022-08-28T12:38:27.764Z,22.82
2022-08-28T12:44:31.968Z,22.80
2022-08-28T12:50:37.251Z,22.57
2022-08-28T12:53:52.832Z,22.55
2022-08-28T12:56:22.590Z,22.48
2022-08-28T12:58:50.888Z,22.45
2022-08-28T13:01:29.342Z,22.38
2022-08-28T13:04:00.176Z,22.34
2022-08-28T13:06:31.575Z,22.32
2022-08-28T13:09:02.088Z,22.37
2022-08-28T13:11:34.935Z,22.39
2022-08-28T13:14:04.324Z,22.41
2022-08-28T13:16:39.403Z,22.39
2022-08-28T13:19:29.212Z,22.36
2022-08-28T13:22:01.774Z,22.24
2022-08-28T13:24:50.326Z,22.25
2022-08-28T13:27:25.300Z,22.23
2022-08-28T13:29:59.766Z,22.14
2022-08-28T13:32:30.801Z,22.11
2022-08-28T13:35:13.594Z,22.13
2022-08-28T13:37:44.475Z,22.14
2022-08-28T13:40:30.202Z,22.13
2022-08-28T13:43:06.951Z,22.12
2022-08-28T13:45:42.849Z,22.09
2022-08-28T13:48:11.535Z,22.09
2022-08-28T13:50:41.654Z,22.11
2022-08-28T13:53:09.291Z,22.23
2022-08-28T13:55:36.871Z,22.29
2022-08-28T13:58:05.792Z,22.27
2022-08-28T14:00:37.083Z,22.16
2022-08-28T14:03:22.067Z,22.03
2022-08-28T14:05:49.568Z,21.84
2022-08-28T14:08:17.120Z,21.83
2022-08-28T14:10:44.657Z,21.85
2022-08-28T14:13:14.294Z,21.88
2022-08-28T14:15:42.133Z,21.93
2022-08-28T14:18:09.646Z,21.91
2022-08-28T14:20:39.184Z,21.90
2022-08-28T14:23:06.874Z,21.88
2022-08-28T14:25:39.069Z,21.90
2022-08-28T14:28:07.010Z,21.95
2022-08-28T14:30:35.908Z,21.95
2022-08-28T14:33:03.418Z,21.97
2022-08-28T14:35:30.952Z,21.97
2022-08-28T14:37:58.501Z,22.04
2022-08-28T14:40:26.167Z,22.03
2022-08-28T14:42:53.711Z,22.02
2022-08-28T14:45:21.235Z,22.00
2022-08-28T14:47:50.067Z,22.01
2022-08-28T14:50:17.632Z,22.00
2022-08-28T14:52:45.149Z,21.99
2022-08-28T14:55:20.491Z,21.99
2022-08-28T14:57:51.329Z,21.97
2022-08-28T15:00:21.597Z,22.00
2022-08-28T15:02:59.648Z,22.04
2022-08-28T15:05:29.672Z,22.08
2022-08-28T15:07:58.787Z,22.09
2022-08-28T15:10:28.051Z,22.09
2022-08-28T15:12:56.943Z,22.11
2022-08-28T15:15:28.278Z,22.12
2022-08-28T15:17:58.986Z,22.16
2022-08-28T15:20:28.503Z,22.17
2022-08-28T15:22:57.430Z,22.20
2022-08-28T15:25:29.032Z,22.23
2022-08-28T15:27:58.027Z,22.30
2022-08-28T15:30:30.565Z,22.34
2022-08-28T15:33:01.925Z,22.37
2022-08-28T15:35:31.485Z,22.43
2022-08-28T15:38:03.686Z,22.48
2022-08-28T15:40:53.711Z,22.50
2022-08-28T15:43:23.061Z,22.52
2022-08-28T15:45:53.301Z,22.54
2022-08-28T15:48:24.680Z,22.53
2022-08-28T15:51:01.292Z,22.57
2022-08-28T15:53:34.506Z,22.59
2022-08-28T15:56:04.457Z,22.61
2022-08-28T15:58:40.097Z,22.63
2022-08-28T16:01:16.669Z,22.65
2022-08-28T16:03:50.343Z,22.65
2022-08-28T16:06:29.436Z,22.66
2022-08-28T16:09:04.737Z,22.68
2022-08-28T16:12:04.452Z,22.68
2022-08-28T16:14:56.686Z,22.71
2022-08-28T16:17:24.575Z,22.71
2022-08-28T16:19:53.753Z,22.72
2022-08-28T16:22:21.479Z,22.71
2022-08-28T16:24:48.970Z,22.72
2022-08-28T16:27:20.173Z,22.72
2022-08-28T16:33:08.178Z,22.69
2022-08-28T16:38:46.267Z,22.71
2022-08-28T16:44:31.995Z,22.67
2022-08-28T16:47:11.185Z,22.65
2022-08-28T16:52:56.124Z,22.65
2022-08-28T16:55:49.089Z,22.64
2022-08-28T16:58:28.104Z,22.64
2022-08-28T17:01:00.718Z,22.60
2022-08-28T17:03:28.695Z,22.58
2022-08-28T17:05:56.848Z,22.56
2022-08-28T17:08:25.718Z,22.53
2022-08-28T17:10:53.266Z,22.52
2022-08-28T17:13:20.774Z,22.49
2022-08-28T17:15:48.378Z,22.47
2022-08-28T17:18:15.923Z,22.45
2022-08-28T17:21:01.250Z,22.42
2022-08-28T17:23:30.058Z,22.38
2022-08-28T17:25:57.710Z,22.36
2022-08-28T17:28:25.347Z,22.34
2022-08-28T17:30:52.945Z,22.32
2022-08-28T17:33:20.591Z,22.27
2022-08-28T17:35:50.296Z,22.23
2022-08-28T17:38:19.653Z,22.20
2022-08-28T17:40:48.699Z,22.16
2022-08-28T17:43:16.193Z,22.12
2022-08-28T17:45:43.973Z,22.07
2022-08-28T17:48:11.683Z,22.02
2022-08-28T17:50:39.361Z,21.97
2022-08-28T17:53:06.892Z,21.92
2022-08-28T17:55:34.410Z,21.86
2022-08-28T17:58:03.285Z,21.82
2022-08-28T18:00:31.881Z,21.78
2022-08-28T18:02:59.775Z,21.72
2022-08-28T18:05:27.556Z,21.67
2022-08-28T18:07:55.074Z,21.63
2022-08-28T18:10:22.614Z,21.58
2022-08-28T18:12:50.367Z,21.51
2022-08-28T18:15:19.848Z,21.47
2022-08-28T18:17:50.381Z,21.42
2022-08-28T18:20:18.867Z,21.38
2022-08-28T18:22:47.006Z,21.33
2022-08-28T18:25:29.778Z,21.29
2022-08-28T18:27:57.564Z,21.25
2022-08-28T18:30:27.180Z,21.19
2022-08-28T18:32:55.472Z,21.16
2022-08-28T18:35:30.347Z,21.12
2022-08-28T18:38:00.204Z,21.08
2022-08-28T18:40:28.139Z,21.04
2022-08-28T18:42:55.673Z,20.99
2022-08-28T18:45:23.202Z,20.95
2022-08-28T18:47:52.374Z,20.92
2022-08-28T18:50:22.044Z,20.90
2022-08-28T18:52:50.320Z,20.87
2022-08-28T18:55:18.915Z,20.85
2022-08-28T18:57:46.843Z,20.82
2022-08-28T19:00:16.516Z,20.78
2022-08-28T19:02:45.004Z,20.74
2022-08-28T19:05:14.883Z,20.71
2022-08-28T19:07:42.982Z,20.67
2022-08-28T19:10:31.811Z,20.60
2022-08-28T19:12:59.390Z,20.56
2022-08-28T19:15:26.930Z,20.52
2022-08-28T19:17:54.590Z,20.48
2022-08-28T19:20:27.991Z,20.46
2022-08-28T19:22:56.109Z,20.39
2022-08-28T19:25:28.181Z,20.34
2022-08-28T19:27:59.133Z,20.30
2022-08-28T19:30:31.229Z,20.27
2022-08-28T19:32:59.279Z,20.23
2022-08-28T19:35:28.292Z,20.17
2022-08-28T19:37:56.378Z,20.16
2022-08-28T19:40:32.092Z,20.11
2022-08-28T19:43:09.754Z,20.07
2022-08-28T19:45:58.957Z,20.05
2022-08-28T19:48:56.669Z,19.98
2022-08-28T19:51:42.529Z,19.94
2022-08-28T19:54:16.765Z,19.91
2022-08-28T19:57:11.175Z,19.86
2022-08-28T19:59:58.099Z,19.82
2022-08-28T20:02:29.105Z,19.81
2022-08-28T20:05:12.152Z,19.79
2022-08-28T20:07:43.913Z,19.77
2022-08-28T20:10:52.223Z,19.73
2022-08-28T20:17:16.445Z,19.63
2022-08-28T20:19:53.406Z,19.61
2022-08-28T20:22:25.912Z,19.58
2022-08-28T20:25:10.751Z,19.54
2022-08-28T20:27:59.522Z,19.51
2022-08-28T20:30:55.264Z,19.44
2022-08-28T20:34:17.056Z,19.40
2022-08-28T20:37:10.250Z,19.36
2022-08-28T20:39:45.573Z,19.33
2022-08-28T20:42:28.369Z,19.29
2022-08-28T20:45:12.534Z,19.26
2022-08-28T20:47:46.120Z,19.22
2022-08-28T20:50:18.591Z,19.17
2022-08-28T20:52:53.610Z,19.15
2022-08-28T20:55:28.966Z,19.12
2022-08-28T20:58:15.894Z,19.08
2022-08-28T21:00:59.621Z,19.05
2022-08-28T21:03:57.248Z,19.02
2022-08-28T21:06:36.722Z,18.98
2022-08-28T21:12:19.142Z,18.90
2022-08-28T21:15:02.772Z,18.85
2022-08-28T21:17:47.708Z,18.81
2022-08-28T21:20:34.392Z,18.75
2022-08-28T21:23:10.308Z,18.73
2022-08-28T21:25:50.769Z,18.70
2022-08-28T21:28:20.426Z,18.67
2022-08-28T21:31:07.982Z,18.63
2022-08-28T21:33:45.573Z,18.62
2022-08-28T21:36:20.934Z,18.59
2022-08-28T21:38:55.694Z,18.57
2022-08-28T21:41:43.298Z,18.55
2022-08-28T21:44:17.552Z,18.53
2022-08-28T21:46:46.761Z,18.50
2022-08-28T21:49:14.342Z,18.49
2022-08-28T21:51:42.176Z,18.47
2022-08-28T21:54:09.827Z,18.44
2022-08-28T21:56:37.335Z,18.43
2022-08-28T21:59:04.907Z,18.42
2022-08-28T22:01:32.652Z,18.41
2022-08-28T22:04:01.668Z,18.37
2022-08-28T22:06:29.314Z,18.35
2022-08-28T22:08:57.830Z,18.32
2022-08-28T22:11:27.206Z,18.32
2022-08-28T22:13:56.705Z,18.31
2022-08-28T22:16:25.440Z,18.28
2022-08-28T22:18:53.131Z,18.26
2022-08-28T22:21:54.456Z,18.24
2022-08-28T22:24:22.235Z,18.22
2022-08-28T22:27:00.249Z,18.20
2022-08-28T22:32:25.822Z,18.18
2022-08-28T22:35:07.408Z,18.16
2022-08-28T22:37:57.298Z,18.14
2022-08-28T22:43:40.544Z,18.12
2022-08-28T22:46:16.575Z,18.10
2022-08-28T22:48:53.801Z,18.09
2022-08-28T22:51:35.572Z,18.08
2022-08-28T22:54:10.234Z,18.04
2022-08-28T22:56:39.924Z,18.03
2022-08-28T22:59:08.715Z,18.02
2022-08-28T23:01:38.820Z,18.01
2022-08-28T23:04:08.224Z,18.00
2022-08-28T23:06:48.215Z,17.98
2022-08-28T23:09:20.621Z,17.93
2022-08-28T23:11:49.858Z,17.93
2022-08-28T23:14:19.563Z,17.92
2022-08-28T23:16:49.333Z,17.91
2022-08-28T23:19:25.772Z,17.88
2022-08-28T23:21:56.528Z,17.85
2022-08-28T23:24:31.767Z,17.82
2022-08-28T23:27:19.404Z,17.79
2022-08-28T23:29:53.340Z,17.77
2022-08-28T23:32:22.607Z,17.75
2022-08-28T23:34:51.640Z,17.70
2022-08-28T23:37:21.142Z,17.68
2022-08-28T23:40:10.304Z,17.62
2022-08-28T23:42:48.847Z,17.60
2022-08-28T23:45:23.408Z,17.57
2022-08-28T23:47:58.531Z,17.55
2022-08-28T23:50:31.539Z,17.52
2022-08-28T23:53:01.191Z,17.44
2022-08-28T23:55:33.394Z,17.38
2022-08-28T23:58:05.689Z,17.33
